createdAt,value
2023-04-16T00:00:19.391Z,8.90
2023-04-16T00:02:47.498Z,8.90
2023-04-16T00:05:15.642Z,8.90
2023-04-16T00:07:43.669Z,8.90
2023-04-16T00:10:12.056Z,8.90
2023-04-16T00:12:41.445Z,8.90
2023-04-16T00:15:10.087Z,8.90
2023-04-16T00:17:38.136Z,8.90
2023-04-16T00:20:08.904Z,8.90
2023-04-16T00:22:36.912Z,8.90
2023-04-16T00:25:05.530Z,8.80
2023-04-16T00:27:33.565Z,8.80
2023-04-16T00:30:03.233Z,8.80
2023-04-16T00:32:31.813Z,8.80
2023-04-16T00:34:59.848Z,8.80
2023-04-16T00:37:27.865Z,8.80
2023-04-16T00:39:55.864Z,8.80
2023-04-16T00:42:23.855Z,8.80
2023-04-16T00:44:51.862Z,8.70
2023-04-16T00:47:22.394Z,8.80
2023-04-16T00:49:50.999Z,8.80
2023-04-16T00:52:19.016Z,8.80
2023-04-16T00:54:47.115Z,8.80
2023-04-16T00:57:15.805Z,8.80
2023-04-16T00:59:43.873Z,8.80
2023-04-16T01:02:12.668Z,8.80
2023-04-16T01:04:42.356Z,8.90
2023-04-16T01:07:10.338Z,8.80
2023-04-16T01:09:38.334Z,8.80
2023-04-16T01:12:06.320Z,8.80
2023-04-16T01:14:36.473Z,8.80
2023-04-16T01:17:04.570Z,8.80
2023-04-16T01:19:32.626Z,8.90
2023-04-16T01:22:01.963Z,8.80
2023-04-16T01:24:29.978Z,8.90
2023-04-16T01:26:59.030Z,8.90
2023-04-16T01:29:27.506Z,8.90
2023-04-16T01:31:55.501Z,8.90
2023-04-16T01:34:23.514Z,8.90
2023-04-16T01:36:51.939Z,8.90
2023-04-16T01:39:21.324Z,8.90
2023-04-16T01:41:49.337Z,8.80
2023-04-16T01:44:17.333Z,8.80
2023-04-16T01:46:45.702Z,8.80
2023-04-16T01:49:13.749Z,8.70
2023-04-16T01:51:42.098Z,8.70
2023-04-16T01:54:10.574Z,8.70
2023-04-16T01:56:39.880Z,8.60
2023-04-16T01:59:08.196Z,8.60
2023-04-16T02:01:36.495Z,8.60
2023-04-16T02:04:05.388Z,8.60
2023-04-16T02:06:33.395Z,8.60
2023-04-16T02:09:01.366Z,8.60
2023-04-16T02:11:29.349Z,8.70
2023-04-16T02:13:58.703Z,8.60
2023-04-16T02:16:27.037Z,8.70
2023-04-16T02:18:55.016Z,8.70
2023-04-16T02:21:23.029Z,8.70
2023-04-16T02:23:51.828Z,8.80
2023-04-16T02:26:20.072Z,8.80
2023-04-16T02:28:48.038Z,8.80
2023-04-16T02:31:19.489Z,8.80
2023-04-16T02:33:47.581Z,8.90
2023-04-16T02:36:15.584Z,8.90
2023-04-16T02:38:43.567Z,8.90
2023-04-16T02:41:11.533Z,8.90
2023-04-16T02:43:39.543Z,8.80
2023-04-16T02:46:07.649Z,8.90
2023-04-16T02:48:37.017Z,8.90
2023-04-16T02:51:05.084Z,8.80
2023-04-16T02:53:33.163Z,8.90
2023-04-16T02:56:01.183Z,8.80
2023-04-16T02:58:29.196Z,8.80
2023-04-16T03:00:57.200Z,8.80
2023-04-16T03:03:25.223Z,8.80
2023-04-16T03:05:54.584Z,8.80
2023-04-16T03:08:22.566Z,8.80
2023-04-16T03:10:50.520Z,8.80
2023-04-16T03:13:18.512Z,8.80
2023-04-16T03:15:50.213Z,8.80
2023-04-16T03:18:18.308Z,8.80
2023-04-16T03:20:46.297Z,8.80
2023-04-16T03:23:15.608Z,8.70
2023-04-16T03:25:46.619Z,8.70
2023-04-16T03:28:14.726Z,8.70
2023-04-16T03:30:42.664Z,8.80
2023-04-16T03:33:10.722Z,8.80
2023-04-16T03:35:38.665Z,8.80
2023-04-16T03:38:06.648Z,8.80
2023-04-16T03:40:35.988Z,8.80
2023-04-16T03:43:03.991Z,8.80
2023-04-16T03:45:32.275Z,8.80
2023-04-16T03:48:00.254Z,8.80
2023-04-16T03:50:28.243Z,8.80
2023-04-16T03:52:56.308Z,8.80
2023-04-16T03:55:24.360Z,8.90
2023-04-16T03:57:53.672Z,8.90
2023-04-16T04:00:21.801Z,8.90
2023-04-16T04:02:49.934Z,8.90
2023-04-16T04:05:18.184Z,8.90
2023-04-16T04:07:46.161Z,8.90
2023-04-16T04:10:14.272Z,8.90
2023-04-16T04:12:42.254Z,8.90
2023-04-16T04:15:12.893Z,8.90
2023-04-16T04:17:40.988Z,8.90
2023-04-16T04:20:09.830Z,8.80
2023-04-16T04:22:37.823Z,8.80
2023-04-16T04:25:06.383Z,8.90
2023-04-16T04:27:35.503Z,8.80
2023-04-16T04:30:04.309Z,8.80
2023-04-16T04:32:33.746Z,8.90
2023-04-16T04:35:03.005Z,8.80
2023-04-16T04:37:31.538Z,8.80
2023-04-16T04:39:59.491Z,8.80
2023-04-16T04:42:27.529Z,8.80
2023-04-16T04:44:55.517Z,8.80
2023-04-16T04:47:23.494Z,8.80
2023-04-16T04:49:52.826Z,8.80
2023-04-16T04:52:21.012Z,8.80
2023-04-16T04:54:48.983Z,8.80
2023-04-16T04:57:16.920Z,8.80
2023-04-16T04:59:44.916Z,8.80
2023-04-16T05:02:12.904Z,8.80
2023-04-16T05:04:41.087Z,8.80
2023-04-16T05:07:10.610Z,8.80
2023-04-16T05:09:38.533Z,8.80
2023-04-16T05:12:06.747Z,8.80
2023-04-16T05:14:36.230Z,8.80
2023-04-16T05:17:04.382Z,8.80
2023-04-16T05:19:32.360Z,8.80
2023-04-16T05:22:02.284Z,8.80
2023-04-16T05:24:31.745Z,8.80
2023-04-16T05:26:59.739Z,8.80
2023-04-16T05:29:28.228Z,8.90
2023-04-16T05:31:56.199Z,8.80
2023-04-16T05:34:24.185Z,8.80
2023-04-16T05:36:52.153Z,8.80
2023-04-16T05:39:20.264Z,8.80
2023-04-16T05:41:49.610Z,8.90
2023-04-16T05:44:17.551Z,8.90
2023-04-16T05:46:45.704Z,8.90
2023-04-16T05:49:13.659Z,8.90
2023-04-16T05:51:41.671Z,8.90
2023-04-16T05:54:09.616Z,8.90
2023-04-16T05:56:37.620Z,8.90
2023-04-16T05:59:07.093Z,8.90
2023-04-16T06:01:35.126Z,8.90
2023-04-16T06:04:03.181Z,8.90
2023-04-16T06:06:31.380Z,8.90
2023-04-16T06:08:59.403Z,8.90
2023-04-16T06:11:27.549Z,8.90
2023-04-16T06:13:55.574Z,9.00
2023-04-16T06:16:24.961Z,9.00
2023-04-16T06:18:53.047Z,9.00
2023-04-16T06:21:21.350Z,9.00
2023-04-16T06:23:49.391Z,9.00
2023-04-16T06:26:17.378Z,9.00
2023-04-16T06:28:45.335Z,9.00
2023-04-16T06:31:13.351Z,9.00
2023-04-16T06:33:42.848Z,9.00
2023-04-16T06:36:11.522Z,9.10
2023-04-16T06:38:39.755Z,9.10
2023-04-16T06:41:07.736Z,9.10
2023-04-16T06:43:35.813Z,9.10
2023-04-16T06:46:03.894Z,9.10
2023-04-16T06:48:31.871Z,9.10
2023-04-16T06:51:01.888Z,9.10
2023-04-16T06:53:30.014Z,9.10
2023-04-16T06:55:57.982Z,9.20
2023-04-16T06:58:26.024Z,9.20
2023-04-16T07:00:54.090Z,9.20
2023-04-16T07:03:22.212Z,9.20
2023-04-16T07:05:50.269Z,9.30
2023-04-16T07:08:19.701Z,9.30
2023-04-16T07:10:47.722Z,9.30
2023-04-16T07:13:15.810Z,9.20
2023-04-16T07:15:43.742Z,9.30
2023-04-16T07:18:11.731Z,9.20
2023-04-16T07:20:39.696Z,9.30
2023-04-16T07:23:07.669Z,9.30
2023-04-16T07:25:37.057Z,9.30
2023-04-16T07:28:05.283Z,9.40
2023-04-16T07:30:34.643Z,9.40
2023-04-16T07:33:03.971Z,9.40
2023-04-16T07:35:32.716Z,9.40
2023-04-16T07:38:00.693Z,9.40
2023-04-16T07:40:28.639Z,9.50
2023-04-16T07:42:58.060Z,9.50
2023-04-16T07:45:27.318Z,9.40
2023-04-16T07:47:55.338Z,9.50
2023-04-16T07:50:23.479Z,9.50
2023-04-16T07:52:51.512Z,9.50
2023-04-16T07:55:19.751Z,9.50
2023-04-16T07:57:47.704Z,9.50
2023-04-16T08:00:17.503Z,9.60
2023-04-16T08:02:46.006Z,9.60
2023-04-16T08:05:14.409Z,9.60
2023-04-16T08:07:42.406Z,9.60
2023-04-16T08:10:10.693Z,9.70
2023-04-16T08:12:38.709Z,9.70
2023-04-16T08:15:08.041Z,9.70
2023-04-16T08:17:37.807Z,9.70
2023-04-16T08:20:06.802Z,9.70
2023-04-16T08:22:34.974Z,9.70
2023-04-16T08:25:02.987Z,9.70
2023-04-16T08:27:31.053Z,9.70
2023-04-16T08:29:59.011Z,9.80
2023-04-16T08:32:27.531Z,9.70
2023-04-16T08:34:57.338Z,9.80
2023-04-16T08:37:26.461Z,9.80
2023-04-16T08:39:54.813Z,9.80
2023-04-16T08:42:31.246Z,9.80
2023-04-16T08:45:10.328Z,9.90
2023-04-16T08:47:38.747Z,9.90
2023-04-16T08:50:12.525Z,9.90
2023-04-16T08:52:46.428Z,9.90
2023-04-16T08:55:15.456Z,9.90
2023-04-16T08:57:48.883Z,10.00
2023-04-16T09:00:17.649Z,10.00
2023-04-16T09:02:46.679Z,10.00
2023-04-16T09:05:19.076Z,10.00
2023-04-16T09:07:47.783Z,10.00
2023-04-16T09:10:16.724Z,10.00
2023-04-16T09:12:45.505Z,10.00
2023-04-16T09:15:14.448Z,10.00
2023-04-16T09:17:42.483Z,10.10
2023-04-16T09:20:11.353Z,10.10
2023-04-16T09:22:41.150Z,10.10
2023-04-16T09:25:11.063Z,10.10
2023-04-16T09:27:39.400Z,10.10
2023-04-16T09:30:22.820Z,10.10
2023-04-16T09:32:52.073Z,10.10
2023-04-16T09:35:21.470Z,10.10
2023-04-16T09:38:00.031Z,10.10
2023-04-16T09:40:31.072Z,10.10
2023-04-16T09:43:00.760Z,10.10
2023-04-16T09:45:33.993Z,10.10
2023-04-16T09:48:04.988Z,10.10
2023-04-16T09:50:33.154Z,10.10
2023-04-16T09:53:03.855Z,10.20
2023-04-16T09:55:31.961Z,10.20
2023-04-16T09:58:01.292Z,10.20
2023-04-16T10:00:31.309Z,10.20
2023-04-16T10:03:06.790Z,10.20
2023-04-16T10:05:35.210Z,10.20
2023-04-16T10:08:11.909Z,10.20
2023-04-16T10:10:40.175Z,10.30
2023-04-16T10:13:08.261Z,10.30
2023-04-16T10:15:36.300Z,10.30
2023-04-16T10:18:05.473Z,10.30
2023-04-16T10:20:33.700Z,10.30
2023-04-16T10:23:03.022Z,10.30
2023-04-16T10:25:33.194Z,10.30
2023-04-16T10:28:01.865Z,10.30
2023-04-16T10:30:30.070Z,10.30
2023-04-16T10:33:00.577Z,10.40
2023-04-16T10:35:28.836Z,10.40
2023-04-16T10:37:57.943Z,10.40
2023-04-16T10:40:27.849Z,10.40
2023-04-16T10:42:58.421Z,10.50
2023-04-16T10:45:32.969Z,10.50
2023-04-16T10:48:06.104Z,10.60
2023-04-16T10:50:37.683Z,10.60
2023-04-16T10:53:23.713Z,10.60
2023-04-16T10:55:59.076Z,10.70
2023-04-16T10:58:32.370Z,10.70
2023-04-16T11:01:01.495Z,10.70
2023-04-16T11:03:32.835Z,10.70
2023-04-16T11:06:14.620Z,10.70
2023-04-16T11:08:54.100Z,10.80
2023-04-16T11:11:23.541Z,10.80
2023-04-16T11:13:56.925Z,10.80
2023-04-16T11:16:26.736Z,10.80
2023-04-16T11:18:56.808Z,10.80
2023-04-16T11:21:26.681Z,10.80
2023-04-16T11:23:56.728Z,10.80
2023-04-16T11:26:26.345Z,10.80
2023-04-16T11:28:56.961Z,10.80
2023-04-16T11:31:27.169Z,10.80
2023-04-16T11:33:57.751Z,10.80
2023-04-16T11:36:27.779Z,10.80
2023-04-16T11:39:03.825Z,10.80
2023-04-16T11:41:31.852Z,10.80
2023-04-16T11:44:01.345Z,10.80
2023-04-16T11:46:40.667Z,10.70
2023-04-16T11:49:09.043Z,10.70
2023-04-16T11:51:41.561Z,10.60
2023-04-16T11:54:12.046Z,10.60
2023-04-16T11:56:46.100Z,10.60
2023-04-16T11:59:17.000Z,10.60
2023-04-16T12:01:49.160Z,10.70
2023-04-16T12:04:20.433Z,10.60
2023-04-16T12:07:10.997Z,10.60
2023-04-16T12:09:41.080Z,10.60
2023-04-16T12:12:27.386Z,10.60
2023-04-16T12:14:59.551Z,10.60
2023-04-16T12:17:27.733Z,10.60
2023-04-16T12:19:58.442Z,10.50
2023-04-16T12:22:31.346Z,10.50
2023-04-16T12:25:04.141Z,10.50
2023-04-16T12:27:46.755Z,10.50
2023-04-16T12:30:17.537Z,10.50
2023-04-16T12:32:47.703Z,10.50
2023-04-16T12:35:29.912Z,10.60
2023-04-16T12:37:57.863Z,10.60
2023-04-16T12:40:25.853Z,10.60
2023-04-16T12:42:53.880Z,10.60
2023-04-16T12:45:23.565Z,10.70
2023-04-16T12:47:51.601Z,10.70
2023-04-16T12:50:20.163Z,10.70
2023-04-16T12:52:48.195Z,10.80
2023-04-16T12:55:16.220Z,10.80
2023-04-16T12:57:44.206Z,10.80
2023-04-16T13:00:14.691Z,10.80
2023-04-16T13:02:44.170Z,10.90
2023-04-16T13:05:13.084Z,10.90
2023-04-16T13:07:41.375Z,11.00
2023-04-16T13:10:10.863Z,11.00
2023-04-16T13:12:38.841Z,11.00
2023-04-16T13:15:07.550Z,11.00
2023-04-16T13:17:35.557Z,11.10
2023-04-16T13:20:05.588Z,11.10
2023-04-16T13:22:33.678Z,11.20
2023-04-16T13:25:01.652Z,11.20
2023-04-16T13:27:30.254Z,11.30
2023-04-16T13:29:58.219Z,11.30
2023-04-16T13:32:26.248Z,11.30
2023-04-16T13:34:54.274Z,11.40
2023-04-16T13:37:23.590Z,11.40
2023-04-16T13:39:51.545Z,11.50
2023-04-16T13:42:19.538Z,11.50
2023-04-16T13:44:49.351Z,11.50
2023-04-16T13:47:17.890Z,11.50
2023-04-16T13:49:45.880Z,11.60
2023-04-16T13:52:13.916Z,11.60
2023-04-16T13:54:43.280Z,11.60
2023-04-16T13:57:11.372Z,11.60
2023-04-16T13:59:39.410Z,11.60
2023-04-16T14:02:07.543Z,11.60
2023-04-16T14:04:35.544Z,11.60
2023-04-16T14:07:03.682Z,11.50
2023-04-16T14:09:31.830Z,11.60
2023-04-16T14:12:01.223Z,11.60
2023-04-16T14:14:29.341Z,11.60
2023-04-16T14:16:58.671Z,11.60
2023-04-16T14:19:26.911Z,11.60
2023-04-16T14:21:54.880Z,11.60
2023-04-16T14:24:22.865Z,11.60
2023-04-16T14:26:50.876Z,11.50
2023-04-16T14:29:20.244Z,11.50
2023-04-16T14:31:48.267Z,11.50
2023-04-16T14:34:16.657Z,11.50
2023-04-16T14:36:45.345Z,11.50
2023-04-16T14:39:13.372Z,11.50
2023-04-16T14:41:41.351Z,11.50
2023-04-16T14:44:09.315Z,11.40
2023-04-16T14:46:41.080Z,11.40
2023-04-16T14:49:12.290Z,11.40
2023-04-16T14:51:40.656Z,11.40
2023-04-16T14:54:08.936Z,11.50
2023-04-16T14:56:36.918Z,11.50
2023-04-16T14:59:04.894Z,11.50
2023-04-16T15:01:34.608Z,11.60
2023-04-16T15:04:04.154Z,11.50
2023-04-16T15:06:32.348Z,11.60
2023-04-16T15:09:00.585Z,11.50
2023-04-16T15:11:28.550Z,11.50
2023-04-16T15:13:56.705Z,11.50
2023-04-16T15:16:24.948Z,11.50
2023-04-16T15:18:53.042Z,11.50
2023-04-16T15:21:22.636Z,11.50
2023-04-16T15:23:51.072Z,11.40
2023-04-16T15:26:19.101Z,11.40
2023-04-16T15:28:47.160Z,11.50
2023-04-16T15:31:15.180Z,11.50
2023-04-16T15:33:43.282Z,11.50
2023-04-16T15:36:11.370Z,11.50
2023-04-16T15:38:40.735Z,11.50
2023-04-16T15:41:10.216Z,11.50
2023-04-16T15:43:38.189Z,11.50
2023-04-16T15:46:06.552Z,11.50
2023-04-16T15:48:34.615Z,11.50
2023-04-16T15:51:02.709Z,11.50
2023-04-16T15:53:30.764Z,11.40
2023-04-16T15:56:00.893Z,11.40
2023-04-16T15:58:28.923Z,11.40
2023-04-16T16:00:57.012Z,11.40
2023-04-16T16:03:25.142Z,11.40
2023-04-16T16:05:53.324Z,11.50
2023-04-16T16:08:21.380Z,11.50
2023-04-16T16:10:49.349Z,11.50
2023-04-16T16:13:18.664Z,11.50
2023-04-16T16:15:46.756Z,11.50
2023-04-16T16:18:14.820Z,11.50
2023-04-16T16:20:42.897Z,11.40
2023-04-16T16:23:11.471Z,11.40
2023-04-16T16:25:39.609Z,11.40
2023-04-16T16:28:07.558Z,11.40
2023-04-16T16:30:36.880Z,11.40
2023-04-16T16:33:04.966Z,11.40
2023-04-16T16:35:32.984Z,11.40
2023-04-16T16:38:01.754Z,11.40
2023-04-16T16:40:30.035Z,11.40
2023-04-16T16:42:58.075Z,11.40
2023-04-16T16:45:27.195Z,11.40
2023-04-16T16:47:58.777Z,11.40
2023-04-16T16:50:26.876Z,11.30
2023-04-16T16:52:54.856Z,11.30
2023-04-16T16:55:23.031Z,11.40
2023-04-16T16:57:51.108Z,11.30
2023-04-16T17:00:21.356Z,11.30
2023-04-16T17:02:51.188Z,11.30
2023-04-16T17:05:21.046Z,11.30
2023-04-16T17:07:49.024Z,11.20
2023-04-16T17:10:20.418Z,11.20
2023-04-16T17:12:48.655Z,11.20
2023-04-16T17:15:18.542Z,11.20
2023-04-16T17:17:47.834Z,11.20
2023-04-16T17:20:16.018Z,11.10
2023-04-16T17:22:45.354Z,11.00
2023-04-16T17:25:13.493Z,11.00
2023-04-16T17:27:41.452Z,11.00
2023-04-16T17:30:10.324Z,11.00
2023-04-16T17:32:38.392Z,11.00
2023-04-16T17:35:07.032Z,11.00
2023-04-16T17:37:35.103Z,11.00
2023-04-16T17:40:07.470Z,11.00
2023-04-16T17:42:35.748Z,11.00
2023-04-16T17:45:04.213Z,11.00
2023-04-16T17:47:32.266Z,10.90
2023-04-16T17:50:00.457Z,10.90
2023-04-16T17:52:28.629Z,10.90
2023-04-16T17:55:01.188Z,10.80
2023-04-16T17:57:31.136Z,10.80
2023-04-16T17:59:59.546Z,10.70
2023-04-16T18:02:27.718Z,10.70
2023-04-16T18:04:56.121Z,10.70
2023-04-16T18:07:24.297Z,10.60
2023-04-16T18:09:52.248Z,10.60
2023-04-16T18:12:20.250Z,10.60
2023-04-16T18:14:49.590Z,10.60
2023-04-16T18:17:17.828Z,10.50
2023-04-16T18:19:45.781Z,10.50
2023-04-16T18:22:13.762Z,10.50
2023-04-16T18:24:41.725Z,10.50
2023-04-16T18:27:09.716Z,10.50
2023-04-16T18:29:39.847Z,10.50
2023-04-16T18:32:11.935Z,10.50
2023-04-16T18:34:40.554Z,10.50
2023-04-16T18:37:08.587Z,10.50
2023-04-16T18:39:36.835Z,10.50
2023-04-16T18:42:05.194Z,10.50
2023-04-16T18:44:33.219Z,10.40
2023-04-16T18:47:01.314Z,10.40
2023-04-16T18:49:30.827Z,10.40
2023-04-16T18:51:58.764Z,10.40
2023-04-16T18:54:27.582Z,10.40
2023-04-16T18:56:56.855Z,10.40
2023-04-16T18:59:25.941Z,10.40
2023-04-16T19:01:54.067Z,10.40
2023-04-16T19:04:22.183Z,10.40
2023-04-16T19:06:51.552Z,10.40
2023-04-16T19:09:19.947Z,10.40
2023-04-16T19:11:50.371Z,10.40
2023-04-16T19:14:18.452Z,10.30
2023-04-16T19:16:46.504Z,10.30
2023-04-16T19:19:14.546Z,10.30
2023-04-16T19:21:42.521Z,10.30
2023-04-16T19:24:11.841Z,10.30
2023-04-16T19:26:39.802Z,10.20
2023-04-16T19:29:07.773Z,10.20
2023-04-16T19:31:35.794Z,10.20
2023-04-16T19:34:03.797Z,10.20
2023-04-16T19:36:32.418Z,10.20
2023-04-16T19:39:00.373Z,10.10
2023-04-16T19:41:29.685Z,10.10
2023-04-16T19:43:57.644Z,10.10
2023-04-16T19:46:25.632Z,10.10
2023-04-16T19:48:53.630Z,10.10
2023-04-16T19:51:21.607Z,10.10
2023-04-16T19:53:49.662Z,10.10
2023-04-16T19:56:17.702Z,10.10
2023-04-16T19:58:47.037Z,10.10
2023-04-16T20:01:15.199Z,10.10
2023-04-16T20:03:43.191Z,10.10
2023-04-16T20:06:11.335Z,10.10
2023-04-16T20:08:39.326Z,10.10
2023-04-16T20:11:08.558Z,10.10
2023-04-16T20:13:37.591Z,10.10
2023-04-16T20:16:09.262Z,10.10
2023-04-16T20:18:41.234Z,10.10
2023-04-16T20:21:09.288Z,10.10
2023-04-16T20:23:37.269Z,10.10
2023-04-16T20:26:05.429Z,10.10
2023-04-16T20:28:33.521Z,10.10
2023-04-16T20:31:01.544Z,10.10
2023-04-16T20:33:30.921Z,10.10
2023-04-16T20:35:58.863Z,10.10
2023-04-16T20:38:32.292Z,10.10
2023-04-16T20:41:10.099Z,10.10
2023-04-16T20:43:40.622Z,10.00
2023-04-16T20:46:09.041Z,10.00
2023-04-16T20:48:39.555Z,10.00
2023-04-16T20:51:09.591Z,10.00
2023-04-16T20:53:38.125Z,10.00
2023-04-16T20:56:06.812Z,10.00
2023-04-16T20:58:34.841Z,9.90
2023-04-16T21:01:02.822Z,9.90
2023-04-16T21:03:31.030Z,9.90
2023-04-16T21:06:02.278Z,9.90
2023-04-16T21:08:30.347Z,9.80
2023-04-16T21:10:58.371Z,9.80
2023-04-16T21:13:26.381Z,9.70
2023-04-16T21:15:54.590Z,9.70
2023-04-16T21:18:22.593Z,9.70
2023-04-16T21:20:50.587Z,9.70
2023-04-16T21:23:19.896Z,9.70
2023-04-16T21:25:47.866Z,9.70
2023-04-16T21:28:15.993Z,9.70
2023-04-16T21:30:44.163Z,9.70
2023-04-16T21:33:12.817Z,9.70
2023-04-16T21:35:40.849Z,9.70
2023-04-16T21:38:08.861Z,9.70
2023-04-16T21:40:38.196Z,9.70
2023-04-16T21:43:06.470Z,9.70
2023-04-16T21:45:34.464Z,9.70
2023-04-16T21:48:02.500Z,9.60
2023-04-16T21:50:30.638Z,9.60
2023-04-16T21:52:58.607Z,9.60
2023-04-16T21:55:26.590Z,9.60
2023-04-16T21:57:55.896Z,9.60
2023-04-16T22:00:23.917Z,9.60
2023-04-16T22:02:56.164Z,9.60
2023-04-16T22:05:25.698Z,9.60
2023-04-16T22:07:54.259Z,9.60
2023-04-16T22:10:22.691Z,9.60
2023-04-16T22:12:54.799Z,9.70
2023-04-16T22:15:24.194Z,9.70
2023-04-16T22:17:52.165Z,9.70
2023-04-16T22:20:20.136Z,9.70
2023-04-16T22:22:48.118Z,9.70
2023-04-16T22:25:16.352Z,9.70
2023-04-16T22:27:44.376Z,9.60
2023-04-16T22:30:13.377Z,9.50
2023-04-16T22:32:42.726Z,9.50
2023-04-16T22:35:12.498Z,9.40
2023-04-16T22:37:40.504Z,9.40
2023-04-16T22:40:10.846Z,9.40
2023-04-16T22:42:38.869Z,9.40
2023-04-16T22:45:08.380Z,9.40
2023-04-16T22:47:36.414Z,9.40
2023-04-16T22:50:06.623Z,9.40
2023-04-16T22:52:34.686Z,9.40
2023-04-16T22:55:02.664Z,9.40
2023-04-16T22:57:30.635Z,9.40
2023-04-16T22:59:58.580Z,9.40
2023-04-16T23:02:26.697Z,9.50
2023-04-16T23:04:54.728Z,9.40
2023-04-16T23:07:24.062Z,9.40
2023-04-16T23:09:52.024Z,9.30
2023-04-16T23:12:20.107Z,9.30
2023-04-16T23:14:48.108Z,9.40
2023-04-16T23:17:16.124Z,9.30
2023-04-16T23:19:44.093Z,9.40
2023-04-16T23:22:12.446Z,9.40
2023-04-16T23:24:41.746Z,9.40
2023-04-16T23:27:09.730Z,9.40
2023-04-16T23:29:37.682Z,9.40
2023-04-16T23:32:06.011Z,9.40
2023-04-16T23:34:33.995Z,9.40
2023-04-16T23:37:01.993Z,9.40
2023-04-16T23:39:29.985Z,9.40
2023-04-16T23:41:59.337Z,9.50
2023-04-16T23:44:27.342Z,9.40
2023-04-16T23:46:55.407Z,9.50
2023-04-16T23:49:23.565Z,9.50
2023-04-16T23:51:51.602Z,9.50
2023-04-16T23:54:20.076Z,9.50
2023-04-16T23:56:49.232Z,9.50
2023-04-16T23:59:18.645Z,9.50
